CheckWX is a tool to help pilots better visualize weather data.  It is not intended as a substitute for an official pre-flight weather briefing.

18:50:03 UTC

EGDY METAR
RNAS Yeovilton Airport
Yeovil, United Kingdom
Current

30 mins ago

EGDY 091820Z 30012KT 9999 FEW012 BKN016 17/15 Q1012 NOSIG RMK WHT WHT
Observed
Jul-9 @ 18:20 UTC
Wind
  • 300° at 12 KTS
Visibility
10,000+ meters
Flight Rules
MVFR
Cloud Levels
  • Few at 1,200' AGL
  • Broken at 1,600' AGL
Temperature
17°C / 63°F
Dewpoint
15°C / 59°F
Humidity
88%
Altimeter
29.88" Hg
Pressure
1011.92 hPa
Previous

60 mins ago

EGDY 091750Z 31013KT 9999 FEW012 BKN016 17/15 Q1012 NOSIG RMK WHT WHT
Observed
Jul-9 @ 17:50 UTC
Wind
  • 310° at 13 KTS
Visibility
10,000+ meters
Flight Rules
MVFR
Cloud Levels
  • Few at 1,200' AGL
  • Broken at 1,600' AGL
Temperature
17°C / 63°F
Dewpoint
15°C / 59°F
Humidity
88%
Altimeter
29.88" Hg
Pressure
1011.92 hPa
Previous

2 hours ago

EGDY 091720Z 31010KT 9999 FEW014 BKN020 17/15 Q1011 NOSIG RMK WHT WHT
Observed
Jul-9 @ 17:20 UTC
Wind
  • 310° at 10 KTS
Visibility
10,000+ meters
Flight Rules
MVFR
Cloud Levels
  • Few at 1,400' AGL
  • Broken at 2,000' AGL
Temperature
17°C / 63°F
Dewpoint
15°C / 59°F
Humidity
88%
Altimeter
29.85" Hg
Pressure
1010.92 hPa